Savage, MN

11:51 AM CDT on July 24, 2017 (GMT -0500)
River Crossing | | Change Station

Elev 906 ft 44.73 °N, 93.33 °W | Updated 15 minutes ago

Mostly Cloudy
Mostly Cloudy
71.3 °F
Feels Like 74 °F
N
1.0
Wind Variable Wind from North
Gusts 6.0 mph

Today
High -- | Low -- °F
--% Chance of Precip.
Yesterday
High -- | Low -- °F
Precip. -- in
Pressure 30.05 in
Visibility 10.0 miles
Clouds Mostly Cloudy 2700 ft
Heat Index 74 °F
Dew Point 61 °F
Humidity 70%
Rainfall 0.00 in
Snow Depth Not available.
5:51 AM 8:48 PM
New Moon, 2% visible
METAR KFCM 241553Z 14006KT 10SM BKN027 22/15 A3005 RMK AO2 SLP174 T02220150
Pressure 30.05 in
Visibility 10.0 miles
Clouds Mostly Cloudy 2700 ft
Heat Index 74 °F
Dew Point 61 °F
Humidity 70%
Rainfall 0.00 in
Snow Depth Not available.
5:51 AM 8:48 PM
New Moon, 2% visible
METAR KFCM 241553Z 14006KT 10SM BKN027 22/15 A3005 RMK AO2 SLP174 T02220150

Get Severe Weather Alerts

Thanks for signing up!

Be on the lookout for a verification email in your inbox.

You'll start receiving the daily forecast at 6 AM.

×

10-Day Weather Forecast

Almanac

Astronomy

Jul. 24, 2017 Rise Set
Actual Time
Civil Twilight
Nautical Twilight
Astronomical Twilight
Moon
Length of Visible Light
Length of Day
Tomorrow will be .
, % of the Moon is Illuminated

Today's Extremes

State Highs State Lows

Community

WunderPhotos

Category 6

Welcome to Category 6. This is the collective home for Weather Underground's featured writeups by Dr. Jeff Masters (right), Bob Henson (left), Chris Burt, and other regular contributors.

Nearby

Air Quality

  Air Quality AQ Index Pollutant
Not available.

Snow Depth

Station Depth Elevation

Earthquake Activity

City Distance Mag. Time & Date
Minimum magnitude displayed is 2.5.

Coastal Water Temperatures

Place Temperature

Stations

Nearby Weather Stations

Station Location Temp. Windchill Dew Point Humidity Wind Precip. Elev Updated Type
                   

Watches & Warnings

There are currently no watches in effect.